sensor_id;sensor_type;location;lat;lon;timestamp;temperature;humidity
70550;DHT22;58101;48.658;2.328;2023-01-29T00:01:49;2.50;99.90
70550;DHT22;58101;48.658;2.328;2023-01-29T00:04:15;2.40;99.90
70550;DHT22;58101;48.658;2.328;2023-01-29T00:06:41;2.30;99.90
70550;DHT22;58101;48.658;2.328;2023-01-29T00:09:06;2.20;99.90
70550;DHT22;58101;48.658;2.328;2023-01-29T00:11:32;2.10;99.90
70550;DHT22;58101;48.658;2.328;2023-01-29T00:13:58;2.10;99.90
70550;DHT22;58101;48.658;2.328;2023-01-29T00:16:24;2.00;99.90
70550;DHT22;58101;48.658;2.328;2023-01-29T00:18:49;2.00;99.90
70550;DHT22;58101;48.658;2.328;2023-01-29T00:21:18;1.90;99.90
70550;DHT22;58101;48.658;2.328;2023-01-29T00:23:45;1.90;99.90
70550;DHT22;58101;48.658;2.328;2023-01-29T00:26:11;1.90;99.90
70550;DHT22;58101;48.658;2.328;2023-01-29T00:28:37;1.90;99.90
70550;DHT22;58101;48.658;2.328;2023-01-29T00:31:07;1.80;99.90
70550;DHT22;58101;48.658;2.328;2023-01-29T00:33:33;1.70;99.90
70550;DHT22;58101;48.658;2.328;2023-01-29T00:36:02;1.70;99.90
70550;DHT22;58101;48.658;2.328;2023-01-29T00:38:28;1.60;99.90
70550;DHT22;58101;48.658;2.328;2023-01-29T00:40:53;1.60;99.90
70550;DHT22;58101;48.658;2.328;2023-01-29T00:43:38;1.50;99.90
70550;DHT22;58101;48.658;2.328;2023-01-29T00:46:22;1.40;99.90
70550;DHT22;58101;48.658;2.328;2023-01-29T00:48:47;1.30;99.90
70550;DHT22;58101;48.658;2.328;2023-01-29T00:51:13;1.20;99.90
70550;DHT22;58101;48.658;2.328;2023-01-29T00:53:38;1.20;99.90
70550;DHT22;58101;48.658;2.328;2023-01-29T00:56:04;1.10;99.90
70550;DHT22;58101;48.658;2.328;2023-01-29T00:58:30;1.00;99.90
70550;DHT22;58101;48.658;2.328;2023-01-29T01:01:00;0.90;99.90
70550;DHT22;58101;48.658;2.328;2023-01-29T01:03:27;0.90;99.90
70550;DHT22;58101;48.658;2.328;2023-01-29T01:06:06;0.90;99.90
70550;DHT22;58101;48.658;2.328;2023-01-29T01:08:32;0.80;99.90
70550;DHT22;58101;48.658;2.328;2023-01-29T01:11:16;0.80;99.90
70550;DHT22;58101;48.658;2.328;2023-01-29T01:13:42;0.80;99.90
70550;DHT22;58101;48.658;2.328;2023-01-29T01:16:12;0.70;99.90
70550;DHT22;58101;48.658;2.328;2023-01-29T01:18:38;0.70;99.90
70550;DHT22;58101;48.658;2.328;2023-01-29T01:21:04;0.60;99.90
70550;DHT22;58101;48.658;2.328;2023-01-29T01:23:30;0.60;99.90
70550;DHT22;58101;48.658;2.328;2023-01-29T01:25:56;0.60;99.90
70550;DHT22;58101;48.658;2.328;2023-01-29T01:28:22;0.60;99.90
70550;DHT22;58101;48.658;2.328;2023-01-29T01:30:48;0.50;99.90
70550;DHT22;58101;48.658;2.328;2023-01-29T01:33:13;0.50;99.90
70550;DHT22;58101;48.658;2.328;2023-01-29T01:35:39;0.50;99.90
70550;DHT22;58101;48.658;2.328;2023-01-29T01:38:05;0.40;99.90
70550;DHT22;58101;48.658;2.328;2023-01-29T01:40:31;0.40;99.90
70550;DHT22;58101;48.658;2.328;2023-01-29T01:42:59;0.40;99.90
70550;DHT22;58101;48.658;2.328;2023-01-29T01:48:03;0.30;99.90
70550;DHT22;58101;48.658;2.328;2023-01-29T01:50:42;0.30;99.90
70550;DHT22;58101;48.658;2.328;2023-01-29T01:53:13;0.30;99.90
70550;DHT22;58101;48.658;2.328;2023-01-29T01:56:09;0.30;99.90
70550;DHT22;58101;48.658;2.328;2023-01-29T01:58:41;0.30;99.90
70550;DHT22;58101;48.658;2.328;2023-01-29T02:01:08;0.20;99.90
70550;DHT22;58101;48.658;2.328;2023-01-29T02:03:53;0.20;99.90
70550;DHT22;58101;48.658;2.328;2023-01-29T02:06:39;0.20;99.90
70550;DHT22;58101;48.658;2.328;2023-01-29T02:12:25;0.20;99.90
70550;DHT22;58101;48.658;2.328;2023-01-29T02:14:53;0.20;99.90
70550;DHT22;58101;48.658;2.328;2023-01-29T02:17:19;0.10;99.90
70550;DHT22;58101;48.658;2.328;2023-01-29T02:20:06;0.10;99.90
70550;DHT22;58101;48.658;2.328;2023-01-29T02:37:36;-0.10;99.90
70550;DHT22;58101;48.658;2.328;2023-01-29T02:42:50;-0.10;99.90
70550;DHT22;58101;48.658;2.328;2023-01-29T02:45:23;-0.10;99.90
70550;DHT22;58101;48.658;2.328;2023-01-29T02:47:58;-0.10;99.90
70550;DHT22;58101;48.658;2.328;2023-01-29T02:50:37;-0.10;99.90
70550;DHT22;58101;48.658;2.328;2023-01-29T02:53:18;-0.10;99.90
70550;DHT22;58101;48.658;2.328;2023-01-29T02:56:12;-0.20;99.90
70550;DHT22;58101;48.658;2.328;2023-01-29T02:58:45;-0.20;99.90
70550;DHT22;58101;48.658;2.328;2023-01-29T03:01:22;-0.20;99.90
70550;DHT22;58101;48.658;2.328;2023-01-29T03:04:04;-0.20;99.90
70550;DHT22;58101;48.658;2.328;2023-01-29T03:06:56;-0.20;99.90
70550;DHT22;58101;48.658;2.328;2023-01-29T03:09:30;-0.10;99.90
70550;DHT22;58101;48.658;2.328;2023-01-29T03:12:06;-0.20;99.90
70550;DHT22;58101;48.658;2.328;2023-01-29T03:14:46;-0.20;99.90
70550;DHT22;58101;48.658;2.328;2023-01-29T03:17:39;-0.20;99.90
70550;DHT22;58101;48.658;2.328;2023-01-29T03:20:09;-0.30;99.90
70550;DHT22;58101;48.658;2.328;2023-01-29T03:22:39;-0.30;99.90
70550;DHT22;58101;48.658;2.328;2023-01-29T03:25:07;-0.30;99.90
70550;DHT22;58101;48.658;2.328;2023-01-29T03:27:56;-0.30;99.90
70550;DHT22;58101;48.658;2.328;2023-01-29T03:30:53;-0.30;99.90
70550;DHT22;58101;48.658;2.328;2023-01-29T03:34:11;-0.30;99.90
70550;DHT22;58101;48.658;2.328;2023-01-29T03:36:43;-0.30;99.90
70550;DHT22;58101;48.658;2.328;2023-01-29T03:39:13;-0.30;99.90
70550;DHT22;58101;48.658;2.328;2023-01-29T03:47:24;-0.40;99.90
70550;DHT22;58101;48.658;2.328;2023-01-29T03:52:48;-0.40;99.90
70550;DHT22;58101;48.658;2.328;2023-01-29T03:55:33;-0.50;99.90
70550;DHT22;58101;48.658;2.328;2023-01-29T04:00:37;-0.40;99.90
70550;DHT22;58101;48.658;2.328;2023-01-29T04:03:12;-0.50;99.90
70550;DHT22;58101;48.658;2.328;2023-01-29T04:05:56;-0.50;99.90
70550;DHT22;58101;48.658;2.328;2023-01-29T04:08:33;-0.50;99.90
70550;DHT22;58101;48.658;2.328;2023-01-29T04:11:11;-0.50;99.90
70550;DHT22;58101;48.658;2.328;2023-01-29T04:13:39;-0.60;99.90
70550;DHT22;58101;48.658;2.328;2023-01-29T04:16:07;-0.60;99.90
70550;DHT22;58101;48.658;2.328;2023-01-29T04:18:35;-0.60;99.90
70550;DHT22;58101;48.658;2.328;2023-01-29T04:21:00;-0.70;99.90
70550;DHT22;58101;48.658;2.328;2023-01-29T04:23:26;-0.70;99.90
70550;DHT22;58101;48.658;2.328;2023-01-29T04:26:00;-0.70;99.90
70550;DHT22;58101;48.658;2.328;2023-01-29T04:31:12;-0.70;99.90
70550;DHT22;58101;48.658;2.328;2023-01-29T04:42:13;-0.80;99.90
70550;DHT22;58101;48.658;2.328;2023-01-29T04:44:53;-0.80;99.90
70550;DHT22;58101;48.658;2.328;2023-01-29T04:51:07;-0.80;99.90
70550;DHT22;58101;48.658;2.328;2023-01-29T04:53:22;-0.90;99.90
70550;DHT22;58101;48.658;2.328;2023-01-29T04:55:57;-0.90;99.90
70550;DHT22;58101;48.658;2.328;2023-01-29T04:58:42;-0.90;99.90
70550;DHT22;58101;48.658;2.328;2023-01-29T05:01:12;-0.90;99.90
70550;DHT22;58101;48.658;2.328;2023-01-29T05:03:40;-0.90;99.90
70550;DHT22;58101;48.658;2.328;2023-01-29T05:06:09;-1.00;99.90
70550;DHT22;58101;48.658;2.328;2023-01-29T05:08:37;-1.00;99.90
70550;DHT22;58101;48.658;2.328;2023-01-29T05:11:03;-1.00;99.90
70550;DHT22;58101;48.658;2.328;2023-01-29T05:13:30;-1.00;99.90
70550;DHT22;58101;48.658;2.328;2023-01-29T05:16:05;-1.00;99.90
70550;DHT22;58101;48.658;2.328;2023-01-29T05:18:32;-1.00;99.90
70550;DHT22;58101;48.658;2.328;2023-01-29T05:21:02;-1.10;99.90
70550;DHT22;58101;48.658;2.328;2023-01-29T05:26:39;-1.00;99.90
70550;DHT22;58101;48.658;2.328;2023-01-29T05:29:24;-1.10;99.90
70550;DHT22;58101;48.658;2.328;2023-01-29T05:31:49;-1.10;99.90
70550;DHT22;58101;48.658;2.328;2023-01-29T05:34:21;-1.20;99.90
70550;DHT22;58101;48.658;2.328;2023-01-29T05:36:54;-1.10;99.90
70550;DHT22;58101;48.658;2.328;2023-01-29T05:39:20;-1.10;99.90
70550;DHT22;58101;48.658;2.328;2023-01-29T05:41:46;-1.10;99.90
70550;DHT22;58101;48.658;2.328;2023-01-29T05:44:11;-1.10;99.90
70550;DHT22;58101;48.658;2.328;2023-01-29T05:46:37;-1.20;99.90
70550;DHT22;58101;48.658;2.328;2023-01-29T05:49:04;-1.20;99.90
70550;DHT22;58101;48.658;2.328;2023-01-29T05:51:30;-1.20;99.90
70550;DHT22;58101;48.658;2.328;2023-01-29T05:53:56;-1.20;99.90
70550;DHT22;58101;48.658;2.328;2023-01-29T05:56:22;-1.20;99.90
70550;DHT22;58101;48.658;2.328;2023-01-29T05:58:47;-1.20;99.90
70550;DHT22;58101;48.658;2.328;2023-01-29T06:01:19;-1.20;99.90
70550;DHT22;58101;48.658;2.328;2023-01-29T06:03:45;-1.20;99.90
70550;DHT22;58101;48.658;2.328;2023-01-29T06:06:11;-1.20;99.90
70550;DHT22;58101;48.658;2.328;2023-01-29T06:08:38;-1.20;99.90
70550;DHT22;58101;48.658;2.328;2023-01-29T06:11:07;-1.20;99.90
70550;DHT22;58101;48.658;2.328;2023-01-29T06:13:33;-1.20;99.90
70550;DHT22;58101;48.658;2.328;2023-01-29T06:15:58;-1.20;99.90
70550;DHT22;58101;48.658;2.328;2023-01-29T06:18:24;-1.20;99.90
70550;DHT22;58101;48.658;2.328;2023-01-29T06:20:50;-1.20;99.90
70550;DHT22;58101;48.658;2.328;2023-01-29T06:23:16;-1.30;99.90
70550;DHT22;58101;48.658;2.328;2023-01-29T06:25:41;-1.20;99.90
70550;DHT22;58101;48.658;2.328;2023-01-29T06:28:10;-1.20;99.90
70550;DHT22;58101;48.658;2.328;2023-01-29T06:30:36;-1.10;99.90
70550;DHT22;58101;48.658;2.328;2023-01-29T06:33:01;-1.30;99.90
70550;DHT22;58101;48.658;2.328;2023-01-29T06:35:27;-1.30;99.90
70550;DHT22;58101;48.658;2.328;2023-01-29T06:37:53;-1.30;99.90
70550;DHT22;58101;48.658;2.328;2023-01-29T06:40:20;-1.30;99.90
70550;DHT22;58101;48.658;2.328;2023-01-29T06:42:46;-1.30;99.90
70550;DHT22;58101;48.658;2.328;2023-01-29T06:45:12;-1.30;99.90
70550;DHT22;58101;48.658;2.328;2023-01-29T06:47:38;-1.30;99.90
70550;DHT22;58101;48.658;2.328;2023-01-29T06:50:04;-1.30;99.90
70550;DHT22;58101;48.658;2.328;2023-01-29T06:52:30;-1.40;99.90
70550;DHT22;58101;48.658;2.328;2023-01-29T06:54:55;-1.40;99.90
70550;DHT22;58101;48.658;2.328;2023-01-29T06:57:21;-1.40;99.90
70550;DHT22;58101;48.658;2.328;2023-01-29T06:59:47;-1.40;99.90
70550;DHT22;58101;48.658;2.328;2023-01-29T07:02:13;-1.40;99.90
70550;DHT22;58101;48.658;2.328;2023-01-29T07:04:38;-1.40;99.90
70550;DHT22;58101;48.658;2.328;2023-01-29T07:07:06;-1.50;99.90
70550;DHT22;58101;48.658;2.328;2023-01-29T07:09:40;-1.40;99.90
70550;DHT22;58101;48.658;2.328;2023-01-29T07:12:07;-1.50;99.90
70550;DHT22;58101;48.658;2.328;2023-01-29T07:14:33;-1.50;99.90
70550;DHT22;58101;48.658;2.328;2023-01-29T07:16:58;-1.50;99.90
70550;DHT22;58101;48.658;2.328;2023-01-29T07:19:24;-1.50;99.90
70550;DHT22;58101;48.658;2.328;2023-01-29T07:21:50;-1.50;99.90
70550;DHT22;58101;48.658;2.328;2023-01-29T07:24:15;-1.40;99.90
70550;DHT22;58101;48.658;2.328;2023-01-29T07:26:41;-1.40;99.90
70550;DHT22;58101;48.658;2.328;2023-01-29T07:29:07;-1.40;99.90
70550;DHT22;58101;48.658;2.328;2023-01-29T07:31:33;-1.40;99.90
70550;DHT22;58101;48.658;2.328;2023-01-29T07:33:58;-1.40;99.90
70550;DHT22;58101;48.658;2.328;2023-01-29T07:36:27;-1.30;99.90
70550;DHT22;58101;48.658;2.328;2023-01-29T07:38:54;-1.40;99.90
70550;DHT22;58101;48.658;2.328;2023-01-29T07:41:20;-1.40;99.90
70550;DHT22;58101;48.658;2.328;2023-01-29T07:43:46;-1.30;99.90
70550;DHT22;58101;48.658;2.328;2023-01-29T07:46:12;-1.30;99.90
70550;DHT22;58101;48.658;2.328;2023-01-29T07:48:44;-1.30;99.90
70550;DHT22;58101;48.658;2.328;2023-01-29T07:51:18;-1.30;99.90
70550;DHT22;58101;48.658;2.328;2023-01-29T07:53:45;-1.30;99.90
70550;DHT22;58101;48.658;2.328;2023-01-29T07:56:11;-1.20;99.90
70550;DHT22;58101;48.658;2.328;2023-01-29T07:58:37;-1.20;99.90
70550;DHT22;58101;48.658;2.328;2023-01-29T08:01:06;-1.20;99.90
70550;DHT22;58101;48.658;2.328;2023-01-29T08:03:32;-1.10;99.90
70550;DHT22;58101;48.658;2.328;2023-01-29T08:05:58;-1.00;99.90
70550;DHT22;58101;48.658;2.328;2023-01-29T08:08:23;-1.00;99.90
70550;DHT22;58101;48.658;2.328;2023-01-29T08:10:50;-0.90;99.90
70550;DHT22;58101;48.658;2.328;2023-01-29T08:13:16;-0.90;99.90
70550;DHT22;58101;48.658;2.328;2023-01-29T08:15:43;-0.70;99.90
70550;DHT22;58101;48.658;2.328;2023-01-29T08:18:09;-0.70;99.90
70550;DHT22;58101;48.658;2.328;2023-01-29T08:20:44;-0.70;99.90
70550;DHT22;58101;48.658;2.328;2023-01-29T08:23:14;-0.50;99.90
70550;DHT22;58101;48.658;2.328;2023-01-29T08:25:40;-0.50;99.90
70550;DHT22;58101;48.658;2.328;2023-01-29T08:28:06;-0.30;99.90
70550;DHT22;58101;48.658;2.328;2023-01-29T08:30:33;-0.30;99.90
70550;DHT22;58101;48.658;2.328;2023-01-29T08:32:59;-0.20;99.90
70550;DHT22;58101;48.658;2.328;2023-01-29T08:35:25;-0.10;99.90
70550;DHT22;58101;48.658;2.328;2023-01-29T08:37:56;0.00;99.90
70550;DHT22;58101;48.658;2.328;2023-01-29T08:40:23;0.10;99.90
70550;DHT22;58101;48.658;2.328;2023-01-29T08:42:49;0.20;99.90
70550;DHT22;58101;48.658;2.328;2023-01-29T08:45:15;0.30;99.90
70550;DHT22;58101;48.658;2.328;2023-01-29T08:47:46;0.50;99.90
70550;DHT22;58101;48.658;2.328;2023-01-29T08:50:11;0.80;99.90
70550;DHT22;58101;48.658;2.328;2023-01-29T08:52:37;1.30;99.90
70550;DHT22;58101;48.658;2.328;2023-01-29T08:55:03;2.20;99.90
70550;DHT22;58101;48.658;2.328;2023-01-29T08:57:34;3.60;99.90
70550;DHT22;58101;48.658;2.328;2023-01-29T09:00:03;5.00;99.90
70550;DHT22;58101;48.658;2.328;2023-01-29T09:02:29;6.00;98.30
70550;DHT22;58101;48.658;2.328;2023-01-29T09:04:55;6.90;93.20
70550;DHT22;58101;48.658;2.328;2023-01-29T09:07:20;7.70;80.60
70550;DHT22;58101;48.658;2.328;2023-01-29T09:09:46;7.90;71.90
70550;DHT22;58101;48.658;2.328;2023-01-29T09:12:12;8.40;70.50
70550;DHT22;58101;48.658;2.328;2023-01-29T09:19:41;8.40;67.10
70550;DHT22;58101;48.658;2.328;2023-01-29T09:22:06;9.00;66.00
70550;DHT22;58101;48.658;2.328;2023-01-29T09:24:32;9.70;65.40
70550;DHT22;58101;48.658;2.328;2023-01-29T09:26:59;10.50;63.80
70550;DHT22;58101;48.658;2.328;2023-01-29T09:29:25;11.10;60.30
70550;DHT22;58101;48.658;2.328;2023-01-29T09:31:51;11.70;58.60
70550;DHT22;58101;48.658;2.328;2023-01-29T09:34:16;12.30;56.90
70550;DHT22;58101;48.658;2.328;2023-01-29T09:36:42;12.70;56.10
70550;DHT22;58101;48.658;2.328;2023-01-29T09:39:08;13.00;54.50
70550;DHT22;58101;48.658;2.328;2023-01-29T09:46:52;13.00;52.30
70550;DHT22;58101;48.658;2.328;2023-01-29T09:49:40;13.50;51.20
70550;DHT22;58101;48.658;2.328;2023-01-29T09:52:19;14.10;49.50
70550;DHT22;58101;48.658;2.328;2023-01-29T09:57:40;15.00;46.50
70550;DHT22;58101;48.658;2.328;2023-01-29T10:00:25;15.30;45.20
70550;DHT22;58101;48.658;2.328;2023-01-29T10:03:23;15.20;44.20
70550;DHT22;58101;48.658;2.328;2023-01-29T10:24:40;17.10;41.20
70550;DHT22;58101;48.658;2.328;2023-01-29T10:27:00;17.30;40.90
70550;DHT22;58101;48.658;2.328;2023-01-29T10:29:27;17.50;39.70
70550;DHT22;58101;48.658;2.328;2023-01-29T10:31:57;17.30;39.70
70550;DHT22;58101;48.658;2.328;2023-01-29T10:35:02;17.50;39.80
70550;DHT22;58101;48.658;2.328;2023-01-29T10:37:42;17.60;38.90
70550;DHT22;58101;48.658;2.328;2023-01-29T10:40:35;17.80;38.70
70550;DHT22;58101;48.658;2.328;2023-01-29T10:43:13;18.20;38.30
70550;DHT22;58101;48.658;2.328;2023-01-29T10:45:45;18.50;37.50
70550;DHT22;58101;48.658;2.328;2023-01-29T10:50:55;18.50;37.60
70550;DHT22;58101;48.658;2.328;2023-01-29T10:59:00;18.70;36.40
70550;DHT22;58101;48.658;2.328;2023-01-29T11:01:29;18.90;35.90
70550;DHT22;58101;48.658;2.328;2023-01-29T11:04:02;19.20;35.80
70550;DHT22;58101;48.658;2.328;2023-01-29T11:06:32;19.30;35.20
70550;DHT22;58101;48.658;2.328;2023-01-29T11:11:51;19.60;33.80
70550;DHT22;58101;48.658;2.328;2023-01-29T11:17:02;18.70;35.30
70550;DHT22;58101;48.658;2.328;2023-01-29T11:19:36;18.60;36.40
70550;DHT22;58101;48.658;2.328;2023-01-29T11:22:02;17.90;36.80
70550;DHT22;58101;48.658;2.328;2023-01-29T11:24:28;16.90;38.60
70550;DHT22;58101;48.658;2.328;2023-01-29T11:26:57;16.40;38.50
70550;DHT22;58101;48.658;2.328;2023-01-29T11:31:59;15.80;41.20
70550;DHT22;58101;48.658;2.328;2023-01-29T11:34:26;15.40;41.90
70550;DHT22;58101;48.658;2.328;2023-01-29T11:37:02;15.70;41.40
70550;DHT22;58101;48.658;2.328;2023-01-29T11:39:30;16.00;41.10
70550;DHT22;58101;48.658;2.328;2023-01-29T11:41:57;15.90;39.90
70550;DHT22;58101;48.658;2.328;2023-01-29T11:47:08;15.60;41.90
70550;DHT22;58101;48.658;2.328;2023-01-29T11:49:34;15.50;41.40
70550;DHT22;58101;48.658;2.328;2023-01-29T11:52:03;15.60;41.80
70550;DHT22;58101;48.658;2.328;2023-01-29T11:54:44;15.40;42.30
70550;DHT22;58101;48.658;2.328;2023-01-29T11:57:33;14.40;43.10
70550;DHT22;58101;48.658;2.328;2023-01-29T12:00:02;14.20;45.10
70550;DHT22;58101;48.658;2.328;2023-01-29T12:02:35;13.50;46.70
70550;DHT22;58101;48.658;2.328;2023-01-29T12:05:18;13.50;46.30
70550;DHT22;58101;48.658;2.328;2023-01-29T12:07:51;13.80;45.60
70550;DHT22;58101;48.658;2.328;2023-01-29T12:10:36;14.60;45.30
70550;DHT22;58101;48.658;2.328;2023-01-29T12:15:46;15.80;41.40
70550;DHT22;58101;48.658;2.328;2023-01-29T12:20:51;15.70;42.00
70550;DHT22;58101;48.658;2.328;2023-01-29T12:26:14;15.60;41.70
70550;DHT22;58101;48.658;2.328;2023-01-29T12:40:00;14.80;42.60
70550;DHT22;58101;48.658;2.328;2023-01-29T12:42:26;15.20;43.20
70550;DHT22;58101;48.658;2.328;2023-01-29T12:44:56;15.60;43.10
70550;DHT22;58101;48.658;2.328;2023-01-29T12:50:05;14.90;42.90
70550;DHT22;58101;48.658;2.328;2023-01-29T12:52:41;13.90;44.70
70550;DHT22;58101;48.658;2.328;2023-01-29T12:55:14;12.90;47.20
70550;DHT22;58101;48.658;2.328;2023-01-29T12:57:43;11.90;49.60
70550;DHT22;58101;48.658;2.328;2023-01-29T13:00:18;11.20;50.30
70550;DHT22;58101;48.658;2.328;2023-01-29T13:03:06;10.60;53.00
70550;DHT22;58101;48.658;2.328;2023-01-29T13:05:52;10.20;54.20
70550;DHT22;58101;48.658;2.328;2023-01-29T13:08:27;9.70;54.30
70550;DHT22;58101;48.658;2.328;2023-01-29T13:10:55;9.40;55.90
70550;DHT22;58101;48.658;2.328;2023-01-29T13:13:33;9.10;57.20
70550;DHT22;58101;48.658;2.328;2023-01-29T13:16:05;9.00;57.30
70550;DHT22;58101;48.658;2.328;2023-01-29T13:18:51;8.80;57.70
70550;DHT22;58101;48.658;2.328;2023-01-29T13:21:25;9.00;57.30
70550;DHT22;58101;48.658;2.328;2023-01-29T13:24:09;9.30;56.60
70550;DHT22;58101;48.658;2.328;2023-01-29T13:26:36;9.50;55.40
70550;DHT22;58101;48.658;2.328;2023-01-29T13:29:02;9.50;55.20
70550;DHT22;58101;48.658;2.328;2023-01-29T13:31:38;10.00;54.90
70550;DHT22;58101;48.658;2.328;2023-01-29T13:36:57;10.90;52.00
70550;DHT22;58101;48.658;2.328;2023-01-29T13:41:58;10.90;50.50
70550;DHT22;58101;48.658;2.328;2023-01-29T13:44:37;10.80;51.30
70550;DHT22;58101;48.658;2.328;2023-01-29T13:47:07;10.70;52.10
70550;DHT22;58101;48.658;2.328;2023-01-29T13:49:45;10.50;52.10
70550;DHT22;58101;48.658;2.328;2023-01-29T13:55:18;10.10;53.10
70550;DHT22;58101;48.658;2.328;2023-01-29T14:05:40;8.90;55.80
70550;DHT22;58101;48.658;2.328;2023-01-29T14:13:51;8.20;57.20
70550;DHT22;58101;48.658;2.328;2023-01-29T14:23:47;7.70;59.40
70550;DHT22;58101;48.658;2.328;2023-01-29T14:26:40;7.60;59.60
70550;DHT22;58101;48.658;2.328;2023-01-29T14:29:15;7.60;60.50
70550;DHT22;58101;48.658;2.328;2023-01-29T14:31:54;7.50;60.80
70550;DHT22;58101;48.658;2.328;2023-01-29T14:34:32;7.40;61.10
70550;DHT22;58101;48.658;2.328;2023-01-29T14:39:51;7.20;62.00
70550;DHT22;58101;48.658;2.328;2023-01-29T14:42:25;7.20;61.70
70550;DHT22;58101;48.658;2.328;2023-01-29T14:52:47;7.00;62.60
70550;DHT22;58101;48.658;2.328;2023-01-29T14:57:48;7.00;64.50
70550;DHT22;58101;48.658;2.328;2023-01-29T15:00:29;7.00;64.30
70550;DHT22;58101;48.658;2.328;2023-01-29T15:02:55;7.10;65.00
70550;DHT22;58101;48.658;2.328;2023-01-29T15:05:26;7.10;63.90
70550;DHT22;58101;48.658;2.328;2023-01-29T15:08:12;7.10;64.20
70550;DHT22;58101;48.658;2.328;2023-01-29T15:10:47;7.00;64.30
70550;DHT22;58101;48.658;2.328;2023-01-29T15:13:14;7.00;64.80
70550;DHT22;58101;48.658;2.328;2023-01-29T15:15:55;6.80;64.90
70550;DHT22;58101;48.658;2.328;2023-01-29T15:18:37;6.80;64.50
70550;DHT22;58101;48.658;2.328;2023-01-29T15:21:14;6.80;65.50
70550;DHT22;58101;48.658;2.328;2023-01-29T15:23:41;6.70;66.60
70550;DHT22;58101;48.658;2.328;2023-01-29T15:26:16;6.60;66.10
70550;DHT22;58101;48.658;2.328;2023-01-29T15:28:43;6.50;66.40
70550;DHT22;58101;48.658;2.328;2023-01-29T15:31:15;6.50;66.80
70550;DHT22;58101;48.658;2.328;2023-01-29T15:33:44;6.50;67.20
70550;DHT22;58101;48.658;2.328;2023-01-29T15:36:22;6.40;67.50
70550;DHT22;58101;48.658;2.328;2023-01-29T15:39:22;6.50;67.20
70550;DHT22;58101;48.658;2.328;2023-01-29T15:41:49;6.50;69.10
70550;DHT22;58101;48.658;2.328;2023-01-29T15:44:21;6.40;70.10
70550;DHT22;58101;48.658;2.328;2023-01-29T15:46:58;6.40;71.10
70550;DHT22;58101;48.658;2.328;2023-01-29T15:49:30;6.30;71.70
70550;DHT22;58101;48.658;2.328;2023-01-29T15:51:59;6.30;72.60
70550;DHT22;58101;48.658;2.328;2023-01-29T15:54:30;6.20;73.50
70550;DHT22;58101;48.658;2.328;2023-01-29T15:56:57;6.20;73.00
70550;DHT22;58101;48.658;2.328;2023-01-29T15:59:37;6.30;73.70
70550;DHT22;58101;48.658;2.328;2023-01-29T16:04:58;6.20;74.60
70550;DHT22;58101;48.658;2.328;2023-01-29T16:07:24;6.20;73.90
70550;DHT22;58101;48.658;2.328;2023-01-29T16:09:51;6.20;76.00
70550;DHT22;58101;48.658;2.328;2023-01-29T16:12:18;6.20;76.70
70550;DHT22;58101;48.658;2.328;2023-01-29T16:14:44;6.20;77.30
70550;DHT22;58101;48.658;2.328;2023-01-29T16:17:33;6.20;76.10
70550;DHT22;58101;48.658;2.328;2023-01-29T16:20:28;6.10;76.40
70550;DHT22;58101;48.658;2.328;2023-01-29T16:22:52;6.10;77.70
70550;DHT22;58101;48.658;2.328;2023-01-29T16:25:18;6.10;79.70
70550;DHT22;58101;48.658;2.328;2023-01-29T16:27:43;6.10;80.50
70550;DHT22;58101;48.658;2.328;2023-01-29T16:30:14;6.10;78.80
70550;DHT22;58101;48.658;2.328;2023-01-29T16:32:40;6.10;80.30
70550;DHT22;58101;48.658;2.328;2023-01-29T16:35:11;6.10;79.40
70550;DHT22;58101;48.658;2.328;2023-01-29T16:37:39;6.10;81.20
70550;DHT22;58101;48.658;2.328;2023-01-29T16:40:13;6.10;82.00
70550;DHT22;58101;48.658;2.328;2023-01-29T16:42:40;6.10;80.50
70550;DHT22;58101;48.658;2.328;2023-01-29T16:45:29;6.10;80.70
70550;DHT22;58101;48.658;2.328;2023-01-29T16:48:26;6.10;83.10
70550;DHT22;58101;48.658;2.328;2023-01-29T16:51:10;6.10;82.50
70550;DHT22;58101;48.658;2.328;2023-01-29T16:53:37;6.10;84.30
70550;DHT22;58101;48.658;2.328;2023-01-29T16:56:05;6.00;86.50
70550;DHT22;58101;48.658;2.328;2023-01-29T16:58:31;6.00;84.70
70550;DHT22;58101;48.658;2.328;2023-01-29T17:01:06;5.90;84.20
70550;DHT22;58101;48.658;2.328;2023-01-29T17:03:33;6.00;84.20
70550;DHT22;58101;48.658;2.328;2023-01-29T17:06:11;6.00;87.40
70550;DHT22;58101;48.658;2.328;2023-01-29T17:08:38;6.00;85.00
70550;DHT22;58101;48.658;2.328;2023-01-29T17:11:06;6.00;88.10
70550;DHT22;58101;48.658;2.328;2023-01-29T17:16:12;5.80;87.20
70550;DHT22;58101;48.658;2.328;2023-01-29T17:18:38;5.70;85.40
70550;DHT22;58101;48.658;2.328;2023-01-29T17:21:04;5.70;89.20
70550;DHT22;58101;48.658;2.328;2023-01-29T17:23:30;5.80;90.50
70550;DHT22;58101;48.658;2.328;2023-01-29T17:25:56;5.70;91.40
70550;DHT22;58101;48.658;2.328;2023-01-29T17:28:21;5.70;91.00
70550;DHT22;58101;48.658;2.328;2023-01-29T17:30:47;5.60;92.50
70550;DHT22;58101;48.658;2.328;2023-01-29T17:33:15;5.70;91.20
70550;DHT22;58101;48.658;2.328;2023-01-29T17:35:43;5.60;92.60
70550;DHT22;58101;48.658;2.328;2023-01-29T17:38:13;5.50;94.70
70550;DHT22;58101;48.658;2.328;2023-01-29T17:43:19;5.50;93.60
70550;DHT22;58101;48.658;2.328;2023-01-29T17:45:45;5.50;95.10
70550;DHT22;58101;48.658;2.328;2023-01-29T17:48:23;5.50;94.60
70550;DHT22;58101;48.658;2.328;2023-01-29T17:50:52;5.50;95.80
70550;DHT22;58101;48.658;2.328;2023-01-29T17:53:19;5.50;94.50
70550;DHT22;58101;48.658;2.328;2023-01-29T17:55:45;5.50;95.40
70550;DHT22;58101;48.658;2.328;2023-01-29T17:58:20;5.50;97.20
70550;DHT22;58101;48.658;2.328;2023-01-29T18:00:47;5.50;98.10
70550;DHT22;58101;48.658;2.328;2023-01-29T18:03:13;5.40;97.10
70550;DHT22;58101;48.658;2.328;2023-01-29T18:05:39;5.50;96.20
70550;DHT22;58101;48.658;2.328;2023-01-29T18:08:27;5.50;97.30
70550;DHT22;58101;48.658;2.328;2023-01-29T18:10:53;5.40;97.30
70550;DHT22;58101;48.658;2.328;2023-01-29T18:13:19;5.40;95.80
70550;DHT22;58101;48.658;2.328;2023-01-29T18:15:44;5.40;98.80
70550;DHT22;58101;48.658;2.328;2023-01-29T18:18:16;5.40;96.60
70550;DHT22;58101;48.658;2.328;2023-01-29T18:20:42;5.40;98.30
70550;DHT22;58101;48.658;2.328;2023-01-29T18:23:09;5.40;97.80
70550;DHT22;58101;48.658;2.328;2023-01-29T18:25:35;5.40;99.10
70550;DHT22;58101;48.658;2.328;2023-01-29T18:28:01;5.40;99.20
70550;DHT22;58101;48.658;2.328;2023-01-29T18:30:28;5.40;99.70
70550;DHT22;58101;48.658;2.328;2023-01-29T18:32:53;5.40;99.20
70550;DHT22;58101;48.658;2.328;2023-01-29T18:35:20;5.40;99.40
70550;DHT22;58101;48.658;2.328;2023-01-29T18:37:49;5.40;99.70
70550;DHT22;58101;48.658;2.328;2023-01-29T18:40:16;5.40;99.90
70550;DHT22;58101;48.658;2.328;2023-01-29T18:42:43;5.40;99.00
70550;DHT22;58101;48.658;2.328;2023-01-29T18:45:09;5.30;99.90
70550;DHT22;58101;48.658;2.328;2023-01-29T18:47:35;5.30;99.90
70550;DHT22;58101;48.658;2.328;2023-01-29T18:50:01;5.40;99.90
70550;DHT22;58101;48.658;2.328;2023-01-29T18:52:26;5.40;99.90
70550;DHT22;58101;48.658;2.328;2023-01-29T18:54:52;5.30;99.90
70550;DHT22;58101;48.658;2.328;2023-01-29T18:57:18;5.30;99.90